Time,TemperatureF,DewpointF,PressureIn,WindDirection,WindDirectionDegrees,WindSpeedMPH,WindSpeedGustMPH,Humidity,HourlyPrecipIn,Conditions,Clouds,dailyrainin,SoftwareType,DateUTC
2013-02-21 00:09:00,5.6,0.5,30.49,East,92,0.0,0.0,79,0.00,,,0.08,Wunderground v.1.15,2013-02-21 06:09:00,
2013-02-21 00:14:00,5.3,0.5,30.49,East,93,0.0,0.0,80,0.00,,,0.00,Wunderground v.1.15,2013-02-21 06:14:00,
2013-02-21 00:24:00,4.5,0.0,30.49,East,93,0.0,0.0,81,0.00,,,0.00,Wunderground v.1.15,2013-02-21 06:24:00,
2013-02-21 00:29:00,4.2,-0.3,30.50,East,93,0.0,0.0,81,0.00,,,0.00,Wunderground v.1.15,2013-02-21 06:29:00,
2013-02-21 00:39:00,3.5,1.7,30.50,East,92,0.0,0.0,92,0.00,,,0.00,Wunderground v.1.15,2013-02-21 06:39:00,
2013-02-21 00:44:00,3.0,-1.3,30.50,East,93,0.0,0.0,82,0.00,,,0.00,Wunderground v.1.15,2013-02-21 06:44:00,
2013-02-21 00:49:00,2.7,-1.3,30.50,East,92,0.0,0.0,83,0.00,,,0.00,Wunderground v.1.15,2013-02-21 06:49:00,
2013-02-21 00:54:00,2.5,-1.5,30.50,East,93,0.0,0.0,83,0.00,,,0.00,Wunderground v.1.15,2013-02-21 06:54:00,
2013-02-21 00:59:00,2.2,-1.8,30.50,East,92,0.0,0.0,83,0.00,,,0.00,Wunderground v.1.15,2013-02-21 06:59:00,
2013-02-21 01:04:00,2.0,-1.7,30.50,East,93,0.0,0.0,84,0.00,,,0.00,Wunderground v.1.15,2013-02-21 07:04:00,
2013-02-21 01:14:00,1.6,-2.1,30.50,East,92,0.0,0.0,84,0.00,,,0.00,Wunderground v.1.15,2013-02-21 07:14:00,
2013-02-21 01:19:00,1.2,-2.5,30.50,East,92,0.0,0.0,84,0.00,,,0.00,Wunderground v.1.15,2013-02-21 07:19:00,
2013-02-21 01:29:00,0.7,-3.0,30.50,East,92,0.0,0.0,84,0.00,,,0.00,Wunderground v.1.15,2013-02-21 07:29:00,
2013-02-21 01:34:00,0.6,-3.1,30.50,East,93,0.0,0.0,84,0.00,,,0.00,Wunderground v.1.15,2013-02-21 07:34:00,
2013-02-21 01:39:00,0.5,-3.2,30.50,East,92,0.0,0.0,84,0.00,,,0.00,Wunderground v.1.15,2013-02-21 07:39:00,
2013-02-21 01:44:00,0.3,-3.1,30.50,East,93,0.0,0.0,85,0.00,,,0.00,Wunderground v.1.15,2013-02-21 07:44:00,
2013-02-21 01:49:00,0.0,-3.7,30.51,East,93,0.0,0.0,84,0.00,,,0.00,Wunderground v.1.15,2013-02-21 07:49:00,
2013-02-21 01:59:00,-0.3,-3.7,30.51,East,92,0.0,0.0,85,0.00,,,0.00,Wunderground v.1.15,2013-02-21 07:59:00,
2013-02-21 02:04:00,-0.3,-3.7,30.50,East,93,0.0,0.0,85,0.00,,,0.00,Wunderground v.1.15,2013-02-21 08:04:00,
2013-02-21 02:09:00,-0.5,-3.9,30.50,East,92,0.0,0.0,85,0.00,,,0.00,Wunderground v.1.15,2013-02-21 08:09:00,
2013-02-21 02:19:00,-0.9,-4.3,30.50,East,93,0.0,0.0,85,0.00,,,0.00,Wunderground v.1.15,2013-02-21 08:19:00,
2013-02-21 02:24:00,-0.9,-4.3,30.50,East,93,0.0,0.0,85,0.00,,,0.00,Wunderground v.1.15,2013-02-21 08:24:00,
2013-02-21 02:29:00,-1.0,-4.4,30.50,East,93,0.0,0.0,85,0.00,,,0.00,Wunderground v.1.15,2013-02-21 08:29:00,
2013-02-21 02:38:00,-1.1,-4.5,30.50,East,93,0.0,0.0,85,0.00,,,0.00,Wunderground v.1.15,2013-02-21 08:38:00,
2013-02-21 02:44:00,-1.2,-4.6,30.50,East,92,0.0,0.0,85,0.00,,,0.00,Wunderground v.1.15,2013-02-21 08:44:00,
2013-02-21 02:49:00,-1.2,-4.6,30.50,East,93,0.0,0.0,85,0.00,,,0.00,Wunderground v.1.15,2013-02-21 08:49:00,
2013-02-21 02:54:00,-1.4,-5.1,30.50,East,93,0.0,0.0,84,0.00,,,0.00,Wunderground v.1.15,2013-02-21 08:54:00,
2013-02-21 02:59:00,-1.5,-5.2,30.50,East,92,0.0,0.0,84,0.00,,,0.00,Wunderground v.1.15,2013-02-21 08:59:00,
2013-02-21 03:04:00,-1.6,-5.3,30.50,East,93,0.0,0.0,84,0.00,,,0.00,Wunderground v.1.15,2013-02-21 09:04:00,
2013-02-21 03:09:00,-1.8,-5.5,30.50,East,93,0.0,0.0,84,0.00,,,0.00,Wunderground v.1.15,2013-02-21 09:09:00,
2013-02-21 03:14:00,-1.9,-5.6,30.50,East,92,0.0,0.0,84,0.00,,,0.00,Wunderground v.1.15,2013-02-21 09:14:00,
2013-02-21 03:23:00,-2.4,-6.0,30.50,East,93,0.0,0.0,84,0.00,,,0.00,Wunderground v.1.15,2013-02-21 09:23:00,
2013-02-21 03:33:00,-2.6,-6.2,30.50,East,92,0.0,0.0,84,0.00,,,0.00,Wunderground v.1.15,2013-02-21 09:33:00,
2013-02-21 03:38:00,-2.5,-6.1,30.49,East,93,0.0,0.0,84,0.00,,,0.00,Wunderground v.1.15,2013-02-21 09:38:00,
2013-02-21 03:43:00,-2.4,-6.0,30.50,East,93,0.0,0.0,84,0.00,,,0.00,Wunderground v.1.15,2013-02-21 09:43:00,
2013-02-21 03:48:00,-2.6,-6.2,30.50,East,92,0.0,0.0,84,0.00,,,0.00,Wunderground v.1.15,2013-02-21 09:48:00,
2013-02-21 03:53:00,-2.5,-6.1,30.50,East,93,0.0,0.0,84,0.00,,,0.00,Wunderground v.1.15,2013-02-21 09:53:00,
2013-02-21 03:58:00,-2.4,-6.0,30.50,East,92,0.0,0.0,84,0.00,,,0.00,Wunderground v.1.15,2013-02-21 09:58:00,
2013-02-21 04:03:00,-2.3,-5.9,30.51,East,93,0.0,0.0,84,0.00,,,0.00,Wunderground v.1.15,2013-02-21 10:03:00,
2013-02-21 04:09:00,-2.5,-6.1,30.51,East,92,0.0,0.0,84,0.00,,,0.00,Wunderground v.1.15,2013-02-21 10:09:00,
2013-02-21 04:19:00,-2.7,-6.3,30.52,East,93,0.0,0.0,84,0.00,,,0.00,Wunderground v.1.15,2013-02-21 10:19:00,
2013-02-21 04:24:00,-3.0,-6.6,30.52,East,93,0.0,0.0,84,0.00,,,0.00,Wunderground v.1.15,2013-02-21 10:24:00,
2013-02-21 04:29:00,-3.1,-7.0,30.52,East,93,0.0,0.0,83,0.00,,,0.00,Wunderground v.1.15,2013-02-21 10:29:00,
2013-02-21 04:34:00,-3.0,-6.6,30.52,East,92,0.0,0.0,84,0.00,,,0.00,Wunderground v.1.15,2013-02-21 10:34:00,
2013-02-21 04:39:00,-3.2,-7.1,30.52,East,93,0.0,0.0,83,0.00,,,0.00,Wunderground v.1.15,2013-02-21 10:39:00,
2013-02-21 04:49:00,-4.3,-8.2,30.52,East,93,0.0,0.0,83,0.00,,,0.00,Wunderground v.1.15,2013-02-21 10:49:00,
2013-02-21 04:54:00,-4.4,-8.3,30.52,East,93,0.0,0.0,83,0.00,,,0.00,Wunderground v.1.15,2013-02-21 10:54:00,
2013-02-21 04:59:00,-4.5,-8.4,30.52,East,92,0.0,0.0,83,0.00,,,0.00,Wunderground v.1.15,2013-02-21 10:59:00,
2013-02-21 05:09:00,-4.4,-8.3,30.53,East,93,0.0,0.0,83,0.00,,,0.00,Wunderground v.1.15,2013-02-21 11:09:00,
2013-02-21 05:14:00,-4.5,-8.4,30.53,East,92,0.0,0.0,83,0.00,,,0.00,Wunderground v.1.15,2013-02-21 11:14:00,
2013-02-21 05:19:00,-4.6,-8.4,30.54,East,93,0.0,0.0,83,0.00,,,0.00,Wunderground v.1.15,2013-02-21 11:19:00,
2013-02-21 05:24:00,-4.9,-8.7,30.54,East,93,0.0,0.0,83,0.00,,,0.00,Wunderground v.1.15,2013-02-21 11:24:00,
2013-02-21 05:29:00,-5.0,-8.8,30.54,East,92,0.0,0.0,83,0.00,,,0.00,Wunderground v.1.15,2013-02-21 11:29:00,
2013-02-21 05:39:00,-5.2,-9.0,30.54,East,93,0.0,0.0,83,0.00,,,0.00,Wunderground v.1.15,2013-02-21 11:39:00,
2013-02-21 05:49:00,-5.1,-8.9,30.53,East,93,0.0,0.0,83,0.00,,,0.00,Wunderground v.1.15,2013-02-21 11:49:00,
2013-02-21 05:54:00,-5.5,-9.3,30.53,East,93,0.0,0.0,83,0.00,,,0.00,Wunderground v.1.15,2013-02-21 11:54:00,
2013-02-21 05:59:00,-5.8,-9.9,30.53,East,93,0.0,0.0,82,0.00,,,0.00,Wunderground v.1.15,2013-02-21 11:59:00,
2013-02-21 06:04:00,-5.9,-9.7,30.52,East,92,0.0,0.0,83,0.00,,,0.00,Wunderground v.1.15,2013-02-21 12:04:00,
2013-02-21 06:09:00,-5.9,-9.7,30.51,East,93,0.0,0.0,83,0.00,,,0.00,Wunderground v.1.15,2013-02-21 12:09:00,
2013-02-21 06:14:00,-5.9,-9.7,30.51,East,92,0.0,0.0,83,0.00,,,0.00,Wunderground v.1.15,2013-02-21 12:14:00,
2013-02-21 06:24:00,-6.0,-9.8,30.49,East,93,0.0,0.0,83,0.00,,,0.00,Wunderground v.1.15,2013-02-21 12:24:00,
2013-02-21 06:34:00,-6.0,-9.8,30.48,East,93,0.0,0.0,83,0.00,,,0.00,Wunderground v.1.15,2013-02-21 12:34:00,
2013-02-21 06:39:00,-6.0,-9.8,30.47,East,92,0.0,0.0,83,0.00,,,0.00,Wunderground v.1.15,2013-02-21 12:39:00,
2013-02-21 06:44:00,-6.1,-9.9,30.47,East,92,0.0,0.0,83,0.00,,,0.00,Wunderground v.1.15,2013-02-21 12:44:00,
2013-02-21 06:49:00,-6.1,-9.9,30.47,East,93,0.0,0.0,83,0.00,,,0.00,Wunderground v.1.15,2013-02-21 12:49:00,
2013-02-21 06:54:00,-5.6,-9.4,30.47,East,92,0.0,0.0,83,0.00,,,0.00,Wunderground v.1.15,2013-02-21 12:54:00,
2013-02-21 06:59:00,-5.0,-8.6,30.47,East,93,0.0,0.0,84,0.00,,,0.00,Wunderground v.1.15,2013-02-21 12:59:00,
2013-02-21 07:09:00,-2.2,-5.4,30.43,East,92,0.0,0.0,86,0.00,,,0.00,Wunderground v.1.15,2013-02-21 13:09:00,
2013-02-21 07:19:00,3.7,0.9,30.45,ESE,105,1.0,1.0,88,0.00,,,0.00,Wunderground v.1.15,2013-02-21 13:19:00,
2013-02-21 07:24:00,5.2,2.2,30.45,ENE,57,2.0,2.0,87,0.00,,,0.00,Wunderground v.1.15,2013-02-21 13:24:00,
2013-02-21 07:29:00,6.1,2.8,30.47,ENE,67,3.0,3.0,86,0.00,,,0.00,Wunderground v.1.15,2013-02-21 13:29:00,
2013-02-21 07:34:00,6.5,3.0,30.49,SE,128,2.0,3.0,85,0.00,,,0.00,Wunderground v.1.15,2013-02-21 13:34:00,
2013-02-21 07:39:00,6.9,3.3,30.52,SE,128,1.0,1.0,85,0.00,,,0.00,Wunderground v.1.15,2013-02-21 13:39:00,
2013-02-21 07:44:00,7.3,3.7,30.53,SE,128,0.0,1.0,85,0.00,,,0.00,Wunderground v.1.15,2013-02-21 13:44:00,
2013-02-21 07:49:00,7.6,4.0,30.53,SE,128,0.0,0.0,85,0.00,,,0.00,Wunderground v.1.15,2013-02-21 13:49:00,
2013-02-21 07:59:00,8.1,4.5,30.54,SE,128,0.0,0.0,85,0.00,,,0.00,Wunderground v.1.15,2013-02-21 13:59:00,
2013-02-21 08:09:00,8.8,5.2,30.54,SE,128,0.0,0.0,85,0.00,,,0.00,Wunderground v.1.15,2013-02-21 14:09:00,
2013-02-21 08:18:00,9.3,5.7,30.54,SE,128,0.0,0.0,85,0.00,,,0.00,Wunderground v.1.15,2013-02-21 14:18:00,
2013-02-21 08:23:00,9.4,5.5,30.54,SE,128,0.0,0.0,84,0.00,,,0.00,Wunderground v.1.15,2013-02-21 14:23:00,
2013-02-21 08:28:00,9.6,6.0,30.54,SE,128,0.0,0.0,85,0.00,,,0.00,Wunderground v.1.15,2013-02-21 14:28:00,
2013-02-21 08:33:00,9.9,6.0,30.53,SE,128,0.0,0.0,84,0.00,,,0.00,Wunderground v.1.15,2013-02-21 14:33:00,
2013-02-21 08:43:00,9.9,5.8,30.53,SE,126,1.0,1.0,83,0.00,,,0.00,Wunderground v.1.15,2013-02-21 14:43:00,
2013-02-21 08:48:00,9.9,6.0,30.53,SE,126,1.0,1.0,84,0.00,,,0.00,Wunderground v.1.15,2013-02-21 14:48:00,
2013-02-21 08:53:00,10.1,6.0,30.52,SE,126,0.0,1.0,83,0.00,,,0.00,Wunderground v.1.15,2013-02-21 14:53:00,
2013-02-21 08:58:00,10.3,6.2,30.53,SE,125,0.0,0.0,83,0.00,,,0.00,Wunderground v.1.15,2013-02-21 14:58:00,
2013-02-21 09:03:00,10.6,6.5,30.52,SE,126,0.0,0.0,83,0.00,,,0.00,Wunderground v.1.15,2013-02-21 15:03:00,
2013-02-21 09:09:00,10.9,6.8,30.53,SE,126,0.0,0.0,83,0.00,,,0.00,Wunderground v.1.15,2013-02-21 15:09:00,
2013-02-21 09:14:00,11.3,6.9,30.52,SE,125,0.0,1.0,82,0.00,,,0.00,Wunderground v.1.15,2013-02-21 15:14:00,
2013-02-21 09:24:00,11.7,7.3,30.52,NE,51,1.0,1.0,82,0.00,,,0.00,Wunderground v.1.15,2013-02-21 15:24:00,
2013-02-21 09:29:00,11.9,7.2,30.52,East,84,1.0,2.0,81,0.00,,,0.00,Wunderground v.1.15,2013-02-21 15:29:00,
2013-02-21 09:39:00,12.7,8.2,30.53,East,80,1.0,1.0,82,0.00,,,0.00,Wunderground v.1.15,2013-02-21 15:39:00,
2013-02-21 09:44:00,12.9,7.9,30.53,East,82,1.0,1.0,80,0.00,,,0.00,Wunderground v.1.15,2013-02-21 15:44:00,
2013-02-21 09:49:00,12.9,7.9,30.53,ENE,57,2.0,2.0,80,0.00,,,0.00,Wunderground v.1.15,2013-02-21 15:49:00,
2013-02-21 09:59:00,13.2,8.5,30.52,East,79,3.0,3.0,81,0.00,,,0.00,Wunderground v.1.15,2013-02-21 15:59:00,
2013-02-21 10:04:00,13.5,8.5,30.51,ENE,68,3.0,3.0,80,0.00,,,0.00,Wunderground v.1.15,2013-02-21 16:04:00,
2013-02-21 10:09:00,13.7,8.7,30.51,ENE,71,3.0,3.0,80,0.00,,,0.00,Wunderground v.1.15,2013-02-21 16:09:00,
2013-02-21 10:19:00,14.0,9.2,30.51,NE,53,4.0,11.0,81,0.00,,,0.00,Wunderground v.1.15,2013-02-21 16:19:00,
2013-02-21 10:24:00,13.8,9.0,30.51,East,96,6.0,11.0,81,0.00,,,0.00,Wunderground v.1.15,2013-02-21 16:24:00,
2013-02-21 10:29:00,13.8,9.0,30.51,East,91,7.0,7.0,81,0.00,,,0.00,Wunderground v.1.15,2013-02-21 16:29:00,
2013-02-21 10:34:00,14.0,9.2,30.51,East,79,7.0,10.0,81,0.00,,,0.00,Wunderground v.1.15,2013-02-21 16:34:00,
2013-02-21 10:39:00,14.1,9.3,30.51,East,90,7.0,8.0,81,0.00,,,0.00,Wunderground v.1.15,2013-02-21 16:39:00,
2013-02-21 10:44:00,14.3,9.5,30.50,ENE,64,6.0,11.0,81,0.00,,,0.00,Wunderground v.1.15,2013-02-21 16:44:00,
2013-02-21 10:54:00,14.6,9.8,30.51,East,89,6.0,6.0,81,0.00,,,0.00,Wunderground v.1.15,2013-02-21 16:54:00,
2013-02-21 10:59:00,14.6,9.8,30.51,East,81,6.0,7.0,81,0.00,,,0.00,Wunderground v.1.15,2013-02-21 16:59:00,
2013-02-21 11:04:00,14.5,9.7,30.50,ENE,76,7.0,7.0,81,0.00,,,0.00,Wunderground v.1.15,2013-02-21 17:04:00,
2013-02-21 11:09:00,14.6,9.8,30.51,ENE,71,6.0,6.0,81,0.00,,,0.00,Wunderground v.1.15,2013-02-21 17:09:00,
2013-02-21 11:19:00,14.6,9.8,30.51,East,82,5.0,5.0,81,0.00,,,0.00,Wunderground v.1.15,2013-02-21 17:19:00,
2013-02-21 11:24:00,14.4,9.6,30.51,East,93,6.0,6.0,81,0.00,,,0.00,Wunderground v.1.15,2013-02-21 17:24:00,
2013-02-21 11:29:00,14.4,9.6,30.52,ESE,105,6.0,6.0,81,0.00,,,0.00,Wunderground v.1.15,2013-02-21 17:29:00,
2013-02-21 11:39:00,14.8,10.0,30.52,East,81,5.0,5.0,81,0.00,,,0.00,Wunderground v.1.15,2013-02-21 17:39:00,
2013-02-21 11:44:00,15.2,10.4,30.51,East,87,4.0,6.0,81,0.00,,,0.00,Wunderground v.1.15,2013-02-21 17:44:00,
2013-02-21 11:49:00,15.1,10.0,30.51,East,92,4.0,4.0,80,0.00,,,0.00,Wunderground v.1.15,2013-02-21 17:49:00,
2013-02-21 11:54:00,15.1,10.0,30.50,East,87,6.0,6.0,80,0.00,,,0.00,Wunderground v.1.15,2013-02-21 17:54:00,
2013-02-21 11:59:00,15.4,10.3,30.50,East,101,5.0,5.0,80,0.00,,,0.00,Wunderground v.1.15,2013-02-21 17:59:00,
2013-02-21 12:04:00,15.4,10.3,30.49,East,99,5.0,5.0,80,0.00,,,0.00,Wunderground v.1.15,2013-02-21 18:04:00,
2013-02-21 12:13:00,15.5,10.4,30.49,East,95,6.0,10.0,80,0.00,,,0.00,Wunderground v.1.15,2013-02-21 18:13:00,
2013-02-21 12:19:00,15.7,10.6,30.49,East,82,6.0,6.0,80,0.00,,,0.00,Wunderground v.1.15,2013-02-21 18:19:00,
2013-02-21 12:28:00,16.2,10.8,30.49,ESE,114,5.0,5.0,79,0.00,,,0.00,Wunderground v.1.15,2013-02-21 18:28:00,
2013-02-21 12:34:00,16.2,10.8,30.49,ESE,102,6.0,7.0,79,0.00,,,0.00,Wunderground v.1.15,2013-02-21 18:34:00,
2013-02-21 12:39:00,16.3,11.2,30.48,East,89,5.0,5.0,80,0.00,,,0.00,Wunderground v.1.15,2013-02-21 18:39:00,
2013-02-21 12:49:00,16.4,11.0,30.46,East,94,6.0,7.0,79,0.00,,,0.00,Wunderground v.1.15,2013-02-21 18:49:00,
2013-02-21 12:54:00,16.6,11.5,30.45,East,97,6.0,7.0,80,0.00,,,0.00,Wunderground v.1.15,2013-02-21 18:54:00,
2013-02-21 12:59:00,16.9,11.5,30.46,NE,53,5.0,5.0,79,0.00,,,0.00,Wunderground v.1.15,2013-02-21 18:59:00,
2013-02-21 13:09:00,16.9,11.8,30.45,NNE,32,5.0,5.0,80,0.00,,,0.00,Wunderground v.1.15,2013-02-21 19:09:00,
2013-02-21 13:14:00,17.3,11.9,30.45,ESE,111,4.0,7.0,79,0.00,,,0.00,Wunderground v.1.15,2013-02-21 19:14:00,
2013-02-21 13:19:00,17.3,12.2,30.44,ENE,76,5.0,5.0,80,0.00,,,0.00,Wunderground v.1.15,2013-02-21 19:19:00,
2013-02-21 13:29:00,17.4,12.3,30.43,ESE,109,5.0,6.0,80,0.00,,,0.00,Wunderground v.1.15,2013-02-21 19:29:00,
2013-02-21 13:38:00,17.5,12.4,30.43,East,92,5.0,5.0,80,0.00,,,0.00,Wunderground v.1.15,2013-02-21 19:38:00,
2013-02-21 13:48:00,17.8,12.7,30.43,East,83,4.0,4.0,80,0.00,,,0.00,Wunderground v.1.15,2013-02-21 19:48:00,
2013-02-21 13:58:00,18.0,13.2,30.42,East,90,5.0,5.0,81,0.00,,,0.00,Wunderground v.1.15,2013-02-21 19:58:00,
2013-02-21 14:03:00,18.3,13.4,30.42,ENE,69,5.0,5.0,81,0.00,,,0.00,Wunderground v.1.15,2013-02-21 20:03:00,
2013-02-21 14:08:00,18.3,13.2,30.41,ENE,74,5.0,9.0,80,0.00,,,0.00,Wunderground v.1.15,2013-02-21 20:08:00,
2013-02-21 14:13:00,18.4,13.3,30.41,East,90,6.0,9.0,80,0.00,,,0.00,Wunderground v.1.15,2013-02-21 20:13:00,
2013-02-21 14:18:00,18.6,13.2,30.40,East,84,6.0,6.0,79,0.00,,,0.00,Wunderground v.1.15,2013-02-21 20:18:00,
2013-02-21 14:23:00,18.6,12.9,30.39,NE,41,5.0,6.0,78,0.00,,,0.00,Wunderground v.1.15,2013-02-21 20:23:00,
2013-02-21 14:33:00,18.9,13.2,30.40,NE,48,5.0,6.0,78,0.00,,,0.00,Wunderground v.1.15,2013-02-21 20:33:00,
2013-02-21 14:38:00,19.1,13.1,30.40,ENE,77,4.0,4.0,77,0.00,,,0.00,Wunderground v.1.15,2013-02-21 20:38:00,
2013-02-21 14:48:00,19.2,13.2,30.40,East,83,5.0,5.0,77,0.00,,,0.00,Wunderground v.1.15,2013-02-21 20:48:00,
2013-02-21 14:53:00,19.2,13.2,30.40,ENE,65,6.0,6.0,77,0.00,,,0.00,Wunderground v.1.15,2013-02-21 20:53:00,
2013-02-21 14:58:00,19.2,13.2,30.40,East,82,6.0,6.0,77,0.00,,,0.00,Wunderground v.1.15,2013-02-21 20:58:00,
2013-02-21 15:03:00,19.3,13.3,30.40,East,79,5.0,10.0,77,0.00,,,0.00,Wunderground v.1.15,2013-02-21 21:03:00,
2013-02-21 15:09:00,19.3,13.3,30.40,ENE,73,5.0,5.0,77,0.00,,,0.00,Wunderground v.1.15,2013-02-21 21:09:00,
2013-02-21 15:14:00,19.6,13.6,30.40,ENE,61,5.0,5.0,77,0.00,,,0.00,Wunderground v.1.15,2013-02-21 21:14:00,
2013-02-21 15:19:00,19.7,13.7,30.40,East,83,5.0,5.0,77,0.00,,,0.00,Wunderground v.1.15,2013-02-21 21:19:00,
2013-02-21 15:29:00,19.9,13.9,30.40,ENE,65,4.0,6.0,77,0.00,,,0.00,Wunderground v.1.15,2013-02-21 21:29:00,
2013-02-21 15:34:00,20.0,13.6,30.40,East,80,4.0,6.0,76,0.00,,,0.00,Wunderground v.1.15,2013-02-21 21:34:00,
2013-02-21 15:39:00,20.2,13.8,30.40,ENE,76,4.0,4.0,76,0.00,,,0.00,Wunderground v.1.15,2013-02-21 21:39:00,
2013-02-21 15:44:00,20.3,13.9,30.40,East,95,4.0,4.0,76,0.00,,,0.00,Wunderground v.1.15,2013-02-21 21:44:00,
2013-02-21 15:49:00,20.2,14.1,30.41,ENE,74,3.0,4.0,77,0.00,,,0.00,Wunderground v.1.15,2013-02-21 21:49:00,
2013-02-21 15:59:00,20.1,14.0,30.41,East,86,5.0,6.0,77,0.00,,,0.00,Wunderground v.1.15,2013-02-21 21:59:00,
2013-02-21 16:04:00,20.0,13.9,30.40,ENE,57,5.0,6.0,77,0.00,,,0.00,Wunderground v.1.15,2013-02-21 22:04:00,
2013-02-21 16:09:00,20.1,14.0,30.40,ESE,113,5.0,5.0,77,0.00,,,0.00,Wunderground v.1.15,2013-02-21 22:09:00,
2013-02-21 16:19:00,20.1,14.0,30.40,East,82,5.0,5.0,77,0.00,,,0.00,Wunderground v.1.15,2013-02-21 22:19:00,
2013-02-21 16:24:00,20.2,14.4,30.40,East,98,5.0,5.0,78,0.00,,,0.00,Wunderground v.1.15,2013-02-21 22:24:00,
2013-02-21 16:29:00,20.3,14.5,30.40,East,90,4.0,4.0,78,0.00,,,0.00,Wunderground v.1.15,2013-02-21 22:29:00,
2013-02-21 16:39:00,20.4,14.6,30.40,ENE,70,4.0,5.0,78,0.00,,,0.00,Wunderground v.1.15,2013-02-21 22:39:00,
2013-02-21 16:44:00,20.4,14.6,30.39,East,84,5.0,8.0,78,0.00,,,0.00,Wunderground v.1.15,2013-02-21 22:44:00,
2013-02-21 16:49:00,20.5,14.7,30.40,ENE,78,6.0,6.0,78,0.00,,,0.00,Wunderground v.1.15,2013-02-21 22:49:00,
2013-02-21 16:54:00,20.5,14.7,30.39,ENE,62,5.0,6.0,78,0.00,,,0.00,Wunderground v.1.15,2013-02-21 22:54:00,
2013-02-21 16:59:00,20.5,14.7,30.39,ENE,64,4.0,5.0,78,0.00,,,0.00,Wunderground v.1.15,2013-02-21 22:59:00,
2013-02-21 17:04:00,20.5,14.7,30.38,East,86,4.0,10.0,78,0.00,,,0.00,Wunderground v.1.15,2013-02-21 23:04:00,
2013-02-21 17:09:00,20.5,15.0,30.38,ENE,78,5.0,7.0,79,0.00,,,0.00,Wunderground v.1.15,2013-02-21 23:09:00,
2013-02-21 17:19:00,20.5,15.0,30.39,East,82,4.0,4.0,79,0.00,,,0.00,Wunderground v.1.15,2013-02-21 23:19:00,
2013-02-21 17:24:00,20.7,15.2,30.38,ENE,72,4.0,4.0,79,0.00,,,0.00,Wunderground v.1.15,2013-02-21 23:24:00,
2013-02-21 17:34:00,20.7,15.2,30.38,East,86,4.0,4.0,79,0.00,,,0.00,Wunderground v.1.15,2013-02-21 23:34:00,
2013-02-21 17:39:00,20.6,15.1,30.38,East,86,3.0,3.0,79,0.00,,,0.00,Wunderground v.1.15,2013-02-21 23:39:00,
2013-02-21 17:44:00,20.6,15.1,30.38,East,86,3.0,4.0,79,0.00,,,0.00,Wunderground v.1.15,2013-02-21 23:44:00,
2013-02-21 17:49:00,20.7,15.5,30.37,ENE,75,4.0,4.0,80,0.00,,,0.00,Wunderground v.1.15,2013-02-21 23:49:00,
2013-02-21 17:55:00,20.7,15.5,30.37,ENE,66,4.0,4.0,80,0.00,,,0.00,Wunderground v.1.15,2013-02-21 23:55:00,
2013-02-21 18:00:00,20.8,15.6,30.37,ENE,71,4.0,5.0,80,0.00,,,0.00,Wunderground v.1.15,2013-02-22 00:00:00,
2013-02-21 18:10:00,21.0,15.8,30.35,ENE,68,5.0,6.0,80,0.00,,,0.00,Wunderground v.1.15,2013-02-22 00:10:00,
2013-02-21 18:15:00,21.0,16.1,30.35,ENE,68,6.0,9.0,81,0.00,,,0.00,Wunderground v.1.15,2013-02-22 00:15:00,
2013-02-21 18:20:00,21.1,16.2,30.34,ENE,59,7.0,10.0,81,0.00,,,0.00,Wunderground v.1.15,2013-02-22 00:20:00,
2013-02-21 18:25:00,21.1,16.5,30.34,ENE,65,9.0,10.0,82,0.00,,,0.00,Wunderground v.1.15,2013-02-22 00:25:00,
2013-02-21 18:30:00,21.1,16.5,30.33,ENE,75,9.0,10.0,82,0.00,,,0.00,Wunderground v.1.15,2013-02-22 00:30:00,
2013-02-21 18:35:00,21.0,16.6,30.33,ENE,71,9.0,10.0,83,0.00,,,0.00,Wunderground v.1.15,2013-02-22 00:35:00,
2013-02-21 18:40:00,21.0,16.6,30.34,ENE,63,9.0,9.0,83,0.00,,,0.00,Wunderground v.1.15,2013-02-22 00:40:00,
2013-02-21 18:45:00,21.0,16.6,30.34,East,98,8.0,9.0,83,0.00,,,0.00,Wunderground v.1.15,2013-02-22 00:45:00,
2013-02-21 18:55:00,21.1,17.0,30.34,East,88,7.0,10.0,84,0.00,,,0.00,Wunderground v.1.15,2013-02-22 00:55:00,
2013-02-21 19:00:00,21.1,17.3,30.34,East,87,10.0,16.0,85,0.00,,,0.00,Wunderground v.1.15,2013-02-22 01:00:00,
2013-02-21 19:10:00,21.1,17.3,30.34,ENE,68,9.0,9.0,85,0.00,,,0.00,Wunderground v.1.15,2013-02-22 01:10:00,
2013-02-21 19:15:00,21.1,17.3,30.33,ENE,63,9.0,13.0,85,0.00,,,0.00,Wunderground v.1.15,2013-02-22 01:15:00,
2013-02-21 19:20:00,21.1,17.3,30.33,ENE,78,9.0,9.0,85,0.00,,,0.00,Wunderground v.1.15,2013-02-22 01:20:00,
2013-02-21 19:30:00,21.0,17.5,30.32,East,83,10.0,10.0,86,0.00,,,0.00,Wunderground v.1.15,2013-02-22 01:30:00,
2013-02-21 19:35:00,21.0,17.5,30.32,NE,44,10.0,11.0,86,0.00,,,0.00,Wunderground v.1.15,2013-02-22 01:35:00,
2013-02-21 19:40:00,21.0,17.5,30.31,ENE,65,11.0,11.0,86,0.00,,,0.00,Wunderground v.1.15,2013-02-22 01:40:00,
2013-02-21 19:50:00,21.0,17.7,30.32,NE,45,10.0,11.0,87,0.00,,,0.00,Wunderground v.1.15,2013-02-22 01:50:00,
2013-02-21 19:55:00,21.1,17.8,30.32,East,84,11.0,11.0,87,0.00,,,0.00,Wunderground v.1.15,2013-02-22 01:55:00,
2013-02-21 20:00:00,21.0,17.7,30.32,NNE,24,11.0,12.0,87,0.00,,,0.00,Wunderground v.1.15,2013-02-22 02:00:00,
2013-02-21 20:10:00,21.1,18.1,30.32,ENE,57,12.0,12.0,88,0.00,,,0.00,Wunderground v.1.15,2013-02-22 02:10:00,
2013-02-21 20:20:00,21.0,18.0,30.31,NE,38,11.0,12.0,88,0.00,,,0.00,Wunderground v.1.15,2013-02-22 02:20:00,
2013-02-21 20:29:00,20.9,18.2,30.30,ENE,63,10.0,10.0,89,0.00,,,0.00,Wunderground v.1.15,2013-02-22 02:29:00,
2013-02-21 20:35:00,20.9,18.2,30.30,ENE,69,8.0,13.0,89,0.00,,,0.00,Wunderground v.1.15,2013-02-22 02:35:00,
2013-02-21 20:40:00,21.0,18.3,30.29,ENE,68,10.0,14.0,89,0.00,,,0.00,Wunderground v.1.15,2013-02-22 02:40:00,
2013-02-21 20:45:00,21.0,18.3,30.28,ENE,59,10.0,14.0,89,0.00,,,0.00,Wunderground v.1.15,2013-02-22 02:45:00,
2013-02-21 20:50:00,21.0,18.3,30.29,NE,54,9.0,9.0,89,0.00,,,0.00,Wunderground v.1.15,2013-02-22 02:50:00,
2013-02-21 20:55:00,21.1,18.6,30.29,ENE,76,9.0,14.0,90,0.00,,,0.00,Wunderground v.1.15,2013-02-22 02:55:00,
2013-02-21 21:05:00,21.1,18.6,30.28,East,79,10.0,10.0,90,0.00,,,0.00,Wunderground v.1.15,2013-02-22 03:05:00,
2013-02-21 21:10:00,21.1,18.4,30.28,ENE,73,9.0,9.0,89,0.00,,,0.00,Wunderground v.1.15,2013-02-22 03:10:00,
2013-02-21 21:15:00,21.1,18.4,30.27,East,79,11.0,11.0,89,0.00,,,0.00,Wunderground v.1.15,2013-02-22 03:15:00,
2013-02-21 21:20:00,21.1,18.4,30.27,NE,44,10.0,10.0,89,0.00,,,0.00,Wunderground v.1.15,2013-02-22 03:20:00,
2013-02-21 21:25:00,21.2,18.5,30.27,ENE,60,10.0,11.0,89,0.00,,,0.00,Wunderground v.1.15,2013-02-22 03:25:00,
2013-02-21 21:30:00,21.2,18.5,30.27,East,83,11.0,13.0,89,0.00,,,0.00,Wunderground v.1.15,2013-02-22 03:30:00,
2013-02-21 21:35:00,21.3,18.6,30.27,East,82,12.0,13.0,89,0.00,,,0.00,Wunderground v.1.15,2013-02-22 03:35:00,
2013-02-21 21:40:00,21.3,18.6,30.26,ENE,78,13.0,14.0,89,0.00,,,0.00,Wunderground v.1.15,2013-02-22 03:40:00,
2013-02-21 21:50:00,21.4,18.7,30.25,East,80,14.0,14.0,89,0.00,,,0.00,Wunderground v.1.15,2013-02-22 03:50:00,
2013-02-21 21:59:00,21.4,18.7,30.25,ENE,68,12.0,12.0,89,0.00,,,0.00,Wunderground v.1.15,2013-02-22 03:59:00,
2013-02-21 22:04:00,21.5,18.8,30.25,ENE,57,12.0,12.0,89,0.00,,,0.00,Wunderground v.1.15,2013-02-22 04:04:00,
2013-02-21 22:09:00,21.5,18.8,30.24,ENE,57,12.0,14.0,89,0.00,,,0.00,Wunderground v.1.15,2013-02-22 04:09:00,
2013-02-21 22:19:00,21.6,18.6,30.24,ENE,73,13.0,14.0,88,0.00,,,0.00,Wunderground v.1.15,2013-02-22 04:19:00,
2013-02-21 22:25:00,21.6,18.6,30.23,East,84,12.0,14.0,88,0.00,,,0.00,Wunderground v.1.15,2013-02-22 04:25:00,
2013-02-21 22:34:00,21.7,18.7,30.23,NE,53,11.0,13.0,88,0.00,,,0.00,Wunderground v.1.15,2013-02-22 04:34:00,
2013-02-21 22:39:00,21.7,18.7,30.23,East,84,12.0,12.0,88,0.00,,,0.00,Wunderground v.1.15,2013-02-22 04:39:00,
2013-02-21 22:49:00,21.8,18.5,30.23,East,92,13.0,14.0,87,0.00,,,0.00,Wunderground v.1.15,2013-02-22 04:49:00,
2013-02-21 22:55:00,21.8,18.5,30.23,East,89,13.0,14.0,87,0.00,,,0.00,Wunderground v.1.15,2013-02-22 04:55:00,
2013-02-21 23:05:00,21.8,18.5,30.22,ENE,61,9.0,11.0,87,0.00,,,0.00,Wunderground v.1.15,2013-02-22 05:05:00,
2013-02-21 23:10:00,21.8,18.5,30.22,NE,52,10.0,10.0,87,0.00,,,0.00,Wunderground v.1.15,2013-02-22 05:10:00,
2013-02-21 23:15:00,21.9,18.4,30.22,ENE,71,11.0,13.0,86,0.00,,,0.00,Wunderground v.1.15,2013-02-22 05:15:00,
2013-02-21 23:20:00,21.9,18.4,30.22,NE,50,11.0,14.0,86,0.00,,,0.00,Wunderground v.1.15,2013-02-22 05:20:00,
2013-02-21 23:25:00,21.9,18.4,30.22,East,82,10.0,14.0,86,0.00,,,0.00,Wunderground v.1.15,2013-02-22 05:25:00,
2013-02-21 23:30:00,21.9,18.1,30.22,East,92,9.0,9.0,85,0.00,,,0.00,Wunderground v.1.15,2013-02-22 05:30:00,
2013-02-21 23:39:00,21.9,18.1,30.21,ENE,78,9.0,10.0,85,0.00,,,0.00,Wunderground v.1.15,2013-02-22 05:39:00,
2013-02-21 23:45:00,21.9,18.1,30.22,ENE,59,9.0,10.0,85,0.00,,,0.00,Wunderground v.1.15,2013-02-22 05:45:00,
2013-02-21 23:55:00,22.0,18.2,30.22,ENE,72,9.0,10.0,85,0.00,,,0.00,Wunderground v.1.15,2013-02-22 05:55:00,